Bierset, Belgium

9:01 AM CEST on September 02, 2014 (GMT +0200)
Embourg | Change Station
CLOSE
Current Station
Personal Weather Station
Location: Chaudfontaine, RéGION WALLONNE
Elevation: 577 ft
Nearby Weather Stations

Elev 577 ft 50.59 °N, 5.62 °E | Updated 24 seconds ago

Mostly Cloudy
Mostly Cloudy
56.3 °F
Feels Like 56.3 °F
N
0.0
Wind Variable Wind from NE
Gusts 0.7 mph

Today
High -- | Low -- °F
--% Chance of Precip.
Yesterday
High -- | Low -- °F
Precip. -- in
6:53 AM 8:21 PM
Waxing Crescent, 48% visible
Pressure 30.18 in
Visibility 6.2 miles
Clouds Mostly Cloudy 4000 ft
Mostly Cloudy 4400 ft
Dew Point 56 °F
Humidity 99%
Rainfall -999.00 in
Snow Depth Not available.
UV 1 out of 12
Pollen Not available.
Air Quality Not available.
Flu Activity Not available.
METAR EHBK 020655Z AUTO VRB02KT 9999 BKN040 BKN044 15/13 Q1022 NOSIG

More Conditions Fewer Conditions

Pressure 30.18 in
Visibility 6.2 miles
Clouds Mostly Cloudy 4000 ft
Mostly Cloudy 4400 ft
Dew Point 56 °F
Humidity 99%
Rainfall -999.00 in
Snow Depth Not available.
UV 1 out of 12
Pollen Not available.
Air Quality Not available.
Flu Activity Not available.
METAR EHBK 020655Z AUTO VRB02KT 9999 BKN040 BKN044 15/13 Q1022 NOSIG

More Conditions Fewer Conditions

10-Day Weather Forecast

Almanac

Astronomy

Sep. 02, 2014 Rise Set
Actual Time 6:53 AM CEST 8:21 PM CEST
Civil Twilight 6:19 AM CEST 8:55 PM CEST
Nautical Twilight 5:37 AM CEST 9:36 PM CEST
Astronomical Twilight 4:51 AM CEST 10:22 PM CEST
Moon 3:07 PM CEST No Moon Set
Length of Visible Light 14h 36m
Length of Day
13h 27m
Tomorrow will be 3m 43s shorter.
Waxing Crescent, 48% of the Moon is Illuminated
Today
Waxing Crescent
Sep 2
First Quarter
Sep 8
Full
Sep 15
Last Quarter
Sep 24
New

Yesterday's Extremes

Country Highs Country Lows

Community

WunderPhotos

Upload Photos

1,749,589 photos uploaded!

WunderBlogs® & News

Nearby

Snow Depth

Not available.

Earthquake Activity

City Distance Mag. Time & Date
No recent earthquake activity has been reported nearby.
Minimum magnitude displayed is 2.5.

Coastal Water Temperatures

Place Temperature
No Stations Reporting

Nearby Weather Stations